sensor_id;sensor_type;location;lat;lon;timestamp;temperature;humidity
58309;DHT22;44117;57.142;24.826;2022-08-30T00:01:11;16.30;99.90
58309;DHT22;44117;57.142;24.826;2022-08-30T00:03:45;16.30;99.90
58309;DHT22;44117;57.142;24.826;2022-08-30T00:06:14;16.30;99.90
58309;DHT22;44117;57.142;24.826;2022-08-30T00:08:43;16.30;99.90
58309;DHT22;44117;57.142;24.826;2022-08-30T00:11:13;16.30;99.90
58309;DHT22;44117;57.142;24.826;2022-08-30T00:13:43;16.20;99.90
58309;DHT22;44117;57.142;24.826;2022-08-30T00:16:11;16.20;99.90
58309;DHT22;44117;57.142;24.826;2022-08-30T00:18:39;16.20;99.90
58309;DHT22;44117;57.142;24.826;2022-08-30T00:21:08;16.20;99.90
58309;DHT22;44117;57.142;24.826;2022-08-30T00:23:36;16.20;99.90
58309;DHT22;44117;57.142;24.826;2022-08-30T00:26:05;16.30;99.90
58309;DHT22;44117;57.142;24.826;2022-08-30T00:28:33;16.30;99.90
58309;DHT22;44117;57.142;24.826;2022-08-30T00:31:01;16.30;99.90
58309;DHT22;44117;57.142;24.826;2022-08-30T00:33:29;16.30;99.90
58309;DHT22;44117;57.142;24.826;2022-08-30T00:35:56;16.30;99.90
58309;DHT22;44117;57.142;24.826;2022-08-30T00:38:24;16.30;99.90
58309;DHT22;44117;57.142;24.826;2022-08-30T00:40:52;16.40;99.90
58309;DHT22;44117;57.142;24.826;2022-08-30T00:43:25;16.40;99.90
58309;DHT22;44117;57.142;24.826;2022-08-30T00:45:54;16.40;99.90
58309;DHT22;44117;57.142;24.826;2022-08-30T00:48:22;16.40;99.90
58309;DHT22;44117;57.142;24.826;2022-08-30T00:50:59;16.40;99.90
58309;DHT22;44117;57.142;24.826;2022-08-30T00:53:34;16.50;99.90
58309;DHT22;44117;57.142;24.826;2022-08-30T00:56:03;16.40;99.90
58309;DHT22;44117;57.142;24.826;2022-08-30T00:58:34;16.40;99.90
58309;DHT22;44117;57.142;24.826;2022-08-30T01:01:04;16.50;99.90
58309;DHT22;44117;57.142;24.826;2022-08-30T01:03:33;16.50;99.90
58309;DHT22;44117;57.142;24.826;2022-08-30T01:06:03;16.50;99.90
58309;DHT22;44117;57.142;24.826;2022-08-30T01:08:31;16.50;99.90
58309;DHT22;44117;57.142;24.826;2022-08-30T01:10:59;16.50;99.90
58309;DHT22;44117;57.142;24.826;2022-08-30T01:13:27;16.50;99.90
58309;DHT22;44117;57.142;24.826;2022-08-30T01:15:55;16.40;99.90
58309;DHT22;44117;57.142;24.826;2022-08-30T01:18:23;16.40;99.90
58309;DHT22;44117;57.142;24.826;2022-08-30T01:21:10;16.40;99.90
58309;DHT22;44117;57.142;24.826;2022-08-30T01:23:43;16.40;99.90
58309;DHT22;44117;57.142;24.826;2022-08-30T01:26:13;16.40;99.90
58309;DHT22;44117;57.142;24.826;2022-08-30T01:28:43;16.40;99.90
58309;DHT22;44117;57.142;24.826;2022-08-30T01:31:13;16.40;99.90
58309;DHT22;44117;57.142;24.826;2022-08-30T01:33:42;16.40;99.90
58309;DHT22;44117;57.142;24.826;2022-08-30T01:36:12;16.40;99.90
58309;DHT22;44117;57.142;24.826;2022-08-30T01:38:47;16.30;99.90
58309;DHT22;44117;57.142;24.826;2022-08-30T01:41:24;16.40;99.90
58309;DHT22;44117;57.142;24.826;2022-08-30T01:43:55;16.30;99.90
58309;DHT22;44117;57.142;24.826;2022-08-30T01:46:26;16.30;99.90
58309;DHT22;44117;57.142;24.826;2022-08-30T01:48:55;16.20;99.90
58309;DHT22;44117;57.142;24.826;2022-08-30T01:51:25;16.30;99.90
58309;DHT22;44117;57.142;24.826;2022-08-30T01:53:53;16.30;99.90
58309;DHT22;44117;57.142;24.826;2022-08-30T01:56:21;16.20;99.90
58309;DHT22;44117;57.142;24.826;2022-08-30T01:58:49;16.20;99.90
58309;DHT22;44117;57.142;24.826;2022-08-30T02:01:19;16.20;99.90
58309;DHT22;44117;57.142;24.826;2022-08-30T02:03:48;16.20;99.90
58309;DHT22;44117;57.142;24.826;2022-08-30T02:06:18;16.20;99.90
58309;DHT22;44117;57.142;24.826;2022-08-30T02:08:46;16.10;99.90
58309;DHT22;44117;57.142;24.826;2022-08-30T02:11:15;16.20;99.90
58309;DHT22;44117;57.142;24.826;2022-08-30T02:13:44;16.10;99.90
58309;DHT22;44117;57.142;24.826;2022-08-30T02:16:16;16.10;99.90
58309;DHT22;44117;57.142;24.826;2022-08-30T02:18:47;16.10;99.90
58309;DHT22;44117;57.142;24.826;2022-08-30T02:21:15;16.10;99.90
58309;DHT22;44117;57.142;24.826;2022-08-30T02:23:42;16.10;99.90
58309;DHT22;44117;57.142;24.826;2022-08-30T02:26:12;16.10;99.90
58309;DHT22;44117;57.142;24.826;2022-08-30T02:28:40;16.10;99.90
58309;DHT22;44117;57.142;24.826;2022-08-30T02:31:16;16.10;99.90
58309;DHT22;44117;57.142;24.826;2022-08-30T02:33:51;16.10;99.90
58309;DHT22;44117;57.142;24.826;2022-08-30T02:36:19;16.10;99.90
58309;DHT22;44117;57.142;24.826;2022-08-30T02:38:48;16.10;99.90
58309;DHT22;44117;57.142;24.826;2022-08-30T02:41:17;16.10;99.90
58309;DHT22;44117;57.142;24.826;2022-08-30T02:43:46;16.10;99.90
58309;DHT22;44117;57.142;24.826;2022-08-30T02:46:13;16.10;99.90
58309;DHT22;44117;57.142;24.826;2022-08-30T02:48:42;16.10;99.90
58309;DHT22;44117;57.142;24.826;2022-08-30T02:51:12;16.20;99.90
58309;DHT22;44117;57.142;24.826;2022-08-30T02:53:41;16.20;99.90
58309;DHT22;44117;57.142;24.826;2022-08-30T02:56:11;16.10;99.90
58309;DHT22;44117;57.142;24.826;2022-08-30T02:58:40;16.10;99.90
58309;DHT22;44117;57.142;24.826;2022-08-30T03:01:13;16.20;99.90
58309;DHT22;44117;57.142;24.826;2022-08-30T03:03:42;16.20;99.90
58309;DHT22;44117;57.142;24.826;2022-08-30T03:06:10;16.20;99.90
58309;DHT22;44117;57.142;24.826;2022-08-30T03:08:38;16.20;99.90
58309;DHT22;44117;57.142;24.826;2022-08-30T03:11:06;16.20;99.90
58309;DHT22;44117;57.142;24.826;2022-08-30T03:13:33;16.20;99.90
58309;DHT22;44117;57.142;24.826;2022-08-30T03:16:01;16.20;99.90
58309;DHT22;44117;57.142;24.826;2022-08-30T03:18:28;16.20;99.90
58309;DHT22;44117;57.142;24.826;2022-08-30T03:20:56;16.20;99.90
58309;DHT22;44117;57.142;24.826;2022-08-30T03:23:23;16.20;99.90
58309;DHT22;44117;57.142;24.826;2022-08-30T03:25:51;16.20;99.90
58309;DHT22;44117;57.142;24.826;2022-08-30T03:28:19;16.20;99.90
58309;DHT22;44117;57.142;24.826;2022-08-30T03:30:46;16.20;99.90
58309;DHT22;44117;57.142;24.826;2022-08-30T03:33:14;16.20;99.90
58309;DHT22;44117;57.142;24.826;2022-08-30T03:35:44;16.20;99.90
58309;DHT22;44117;57.142;24.826;2022-08-30T03:38:11;16.10;99.90
58309;DHT22;44117;57.142;24.826;2022-08-30T03:40:39;16.20;99.90
58309;DHT22;44117;57.142;24.826;2022-08-30T03:43:06;16.20;99.90
58309;DHT22;44117;57.142;24.826;2022-08-30T03:45:34;16.20;99.90
58309;DHT22;44117;57.142;24.826;2022-08-30T03:48:02;16.20;99.90
58309;DHT22;44117;57.142;24.826;2022-08-30T03:50:30;16.20;99.90
58309;DHT22;44117;57.142;24.826;2022-08-30T03:52:58;16.20;99.90
58309;DHT22;44117;57.142;24.826;2022-08-30T03:55:28;16.30;99.90
58309;DHT22;44117;57.142;24.826;2022-08-30T03:57:56;16.30;99.90
58309;DHT22;44117;57.142;24.826;2022-08-30T04:00:24;16.30;99.90
58309;DHT22;44117;57.142;24.826;2022-08-30T04:02:51;16.40;99.90
58309;DHT22;44117;57.142;24.826;2022-08-30T04:05:19;16.50;99.90
58309;DHT22;44117;57.142;24.826;2022-08-30T04:07:47;16.50;99.90
58309;DHT22;44117;57.142;24.826;2022-08-30T04:10:14;16.50;99.90
58309;DHT22;44117;57.142;24.826;2022-08-30T04:12:42;16.60;99.90
58309;DHT22;44117;57.142;24.826;2022-08-30T04:15:16;16.60;99.90
58309;DHT22;44117;57.142;24.826;2022-08-30T04:17:44;16.70;99.90
58309;DHT22;44117;57.142;24.826;2022-08-30T04:20:12;16.70;99.90
58309;DHT22;44117;57.142;24.826;2022-08-30T04:22:39;16.70;99.90
58309;DHT22;44117;57.142;24.826;2022-08-30T04:25:07;16.80;99.90
58309;DHT22;44117;57.142;24.826;2022-08-30T04:27:42;16.80;99.90
58309;DHT22;44117;57.142;24.826;2022-08-30T04:30:10;16.90;99.90
58309;DHT22;44117;57.142;24.826;2022-08-30T04:32:38;17.00;99.90
58309;DHT22;44117;57.142;24.826;2022-08-30T04:35:06;17.00;99.90
58309;DHT22;44117;57.142;24.826;2022-08-30T04:37:34;17.10;99.90
58309;DHT22;44117;57.142;24.826;2022-08-30T04:40:01;17.00;99.90
58309;DHT22;44117;57.142;24.826;2022-08-30T04:42:31;17.00;99.90
58309;DHT22;44117;57.142;24.826;2022-08-30T04:45:06;17.00;99.90
58309;DHT22;44117;57.142;24.826;2022-08-30T04:47:35;16.90;99.90
58309;DHT22;44117;57.142;24.826;2022-08-30T04:50:02;16.90;99.90
58309;DHT22;44117;57.142;24.826;2022-08-30T04:52:30;16.90;99.90
58309;DHT22;44117;57.142;24.826;2022-08-30T04:54:58;16.90;99.90
58309;DHT22;44117;57.142;24.826;2022-08-30T04:57:26;16.90;99.90
58309;DHT22;44117;57.142;24.826;2022-08-30T04:59:54;16.90;99.90
58309;DHT22;44117;57.142;24.826;2022-08-30T05:02:22;16.90;99.90
58309;DHT22;44117;57.142;24.826;2022-08-30T05:04:49;16.80;99.90
58309;DHT22;44117;57.142;24.826;2022-08-30T05:07:52;16.70;99.90
58309;DHT22;44117;57.142;24.826;2022-08-30T05:10:20;16.70;99.90
58309;DHT22;44117;57.142;24.826;2022-08-30T05:12:48;16.60;99.90
58309;DHT22;44117;57.142;24.826;2022-08-30T05:15:15;16.60;99.90
58309;DHT22;44117;57.142;24.826;2022-08-30T05:17:42;16.60;99.90
58309;DHT22;44117;57.142;24.826;2022-08-30T05:20:11;16.70;99.90
58309;DHT22;44117;57.142;24.826;2022-08-30T05:22:42;16.60;99.90
58309;DHT22;44117;57.142;24.826;2022-08-30T05:25:21;16.60;99.90
58309;DHT22;44117;57.142;24.826;2022-08-30T05:27:50;16.60;99.90
58309;DHT22;44117;57.142;24.826;2022-08-30T05:30:19;16.60;99.90
58309;DHT22;44117;57.142;24.826;2022-08-30T05:32:46;16.60;99.90
58309;DHT22;44117;57.142;24.826;2022-08-30T05:35:15;16.70;99.90
58309;DHT22;44117;57.142;24.826;2022-08-30T05:37:47;16.60;99.90
58309;DHT22;44117;57.142;24.826;2022-08-30T05:40:15;16.60;99.90
58309;DHT22;44117;57.142;24.826;2022-08-30T05:42:44;16.70;99.90
58309;DHT22;44117;57.142;24.826;2022-08-30T05:45:13;16.70;99.90
58309;DHT22;44117;57.142;24.826;2022-08-30T05:47:41;16.70;99.90
58309;DHT22;44117;57.142;24.826;2022-08-30T05:50:09;16.70;99.90
58309;DHT22;44117;57.142;24.826;2022-08-30T05:52:40;16.70;99.90
58309;DHT22;44117;57.142;24.826;2022-08-30T05:55:09;16.70;99.90
58309;DHT22;44117;57.142;24.826;2022-08-30T05:57:38;16.70;99.90
58309;DHT22;44117;57.142;24.826;2022-08-30T06:00:15;16.70;99.90
58309;DHT22;44117;57.142;24.826;2022-08-30T06:02:44;16.70;99.90
58309;DHT22;44117;57.142;24.826;2022-08-30T06:05:12;16.80;99.90
58309;DHT22;44117;57.142;24.826;2022-08-30T06:07:40;16.80;99.90
58309;DHT22;44117;57.142;24.826;2022-08-30T06:10:08;16.90;99.90
58309;DHT22;44117;57.142;24.826;2022-08-30T06:12:35;16.90;99.90
58309;DHT22;44117;57.142;24.826;2022-08-30T06:15:03;17.00;99.90
58309;DHT22;44117;57.142;24.826;2022-08-30T06:17:31;16.90;99.90
58309;DHT22;44117;57.142;24.826;2022-08-30T06:19:58;16.90;99.90
58309;DHT22;44117;57.142;24.826;2022-08-30T06:22:26;17.00;99.90
58309;DHT22;44117;57.142;24.826;2022-08-30T06:24:53;17.10;99.90
58309;DHT22;44117;57.142;24.826;2022-08-30T06:27:23;17.10;99.90
58309;DHT22;44117;57.142;24.826;2022-08-30T06:29:51;17.20;99.90
58309;DHT22;44117;57.142;24.826;2022-08-30T06:32:19;17.20;99.90
58309;DHT22;44117;57.142;24.826;2022-08-30T06:34:46;17.30;99.90
58309;DHT22;44117;57.142;24.826;2022-08-30T06:37:14;17.40;99.90
58309;DHT22;44117;57.142;24.826;2022-08-30T06:39:56;17.40;99.90
58309;DHT22;44117;57.142;24.826;2022-08-30T06:42:25;17.50;99.90
58309;DHT22;44117;57.142;24.826;2022-08-30T06:44:58;17.60;99.90
58309;DHT22;44117;57.142;24.826;2022-08-30T06:47:27;17.60;99.90
58309;DHT22;44117;57.142;24.826;2022-08-30T06:49:56;17.70;99.90
58309;DHT22;44117;57.142;24.826;2022-08-30T06:52:24;17.50;99.90
58309;DHT22;44117;57.142;24.826;2022-08-30T06:54:53;17.50;99.90
58309;DHT22;44117;57.142;24.826;2022-08-30T06:57:21;17.50;99.90
58309;DHT22;44117;57.142;24.826;2022-08-30T06:59:49;17.50;99.90
58309;DHT22;44117;57.142;24.826;2022-08-30T07:02:23;17.40;99.90
58309;DHT22;44117;57.142;24.826;2022-08-30T07:04:51;17.30;99.90
58309;DHT22;44117;57.142;24.826;2022-08-30T07:07:18;17.30;99.90
58309;DHT22;44117;57.142;24.826;2022-08-30T07:09:46;17.30;99.90
58309;DHT22;44117;57.142;24.826;2022-08-30T07:12:14;17.30;99.90
58309;DHT22;44117;57.142;24.826;2022-08-30T07:14:42;17.20;99.90
58309;DHT22;44117;57.142;24.826;2022-08-30T07:17:09;17.10;99.90
58309;DHT22;44117;57.142;24.826;2022-08-30T07:20:01;17.10;99.90
58309;DHT22;44117;57.142;24.826;2022-08-30T07:22:28;17.10;99.90
58309;DHT22;44117;57.142;24.826;2022-08-30T07:24:56;17.10;99.90
58309;DHT22;44117;57.142;24.826;2022-08-30T07:27:23;17.00;99.90
58309;DHT22;44117;57.142;24.826;2022-08-30T07:29:50;17.10;99.90
58309;DHT22;44117;57.142;24.826;2022-08-30T07:32:18;17.10;99.90
58309;DHT22;44117;57.142;24.826;2022-08-30T07:34:45;17.10;99.90
58309;DHT22;44117;57.142;24.826;2022-08-30T07:37:17;17.10;99.90
58309;DHT22;44117;57.142;24.826;2022-08-30T07:39:45;17.10;99.90
58309;DHT22;44117;57.142;24.826;2022-08-30T07:42:14;17.20;99.90
58309;DHT22;44117;57.142;24.826;2022-08-30T07:44:42;17.20;99.90
58309;DHT22;44117;57.142;24.826;2022-08-30T07:47:10;17.10;99.90
58309;DHT22;44117;57.142;24.826;2022-08-30T07:49:38;17.20;99.90
58309;DHT22;44117;57.142;24.826;2022-08-30T07:52:06;17.10;99.90
58309;DHT22;44117;57.142;24.826;2022-08-30T07:54:33;17.20;99.90
58309;DHT22;44117;57.142;24.826;2022-08-30T07:57:00;17.20;99.90
58309;DHT22;44117;57.142;24.826;2022-08-30T07:59:28;17.40;99.90
58309;DHT22;44117;57.142;24.826;2022-08-30T08:02:01;17.50;99.90
58309;DHT22;44117;57.142;24.826;2022-08-30T08:04:29;17.60;99.90
58309;DHT22;44117;57.142;24.826;2022-08-30T08:06:57;17.80;99.90
58309;DHT22;44117;57.142;24.826;2022-08-30T08:09:26;17.80;99.90
58309;DHT22;44117;57.142;24.826;2022-08-30T08:11:54;17.80;99.90
58309;DHT22;44117;57.142;24.826;2022-08-30T08:14:22;17.90;99.90
58309;DHT22;44117;57.142;24.826;2022-08-30T08:16:50;18.00;99.90
58309;DHT22;44117;57.142;24.826;2022-08-30T08:19:18;18.10;99.90
58309;DHT22;44117;57.142;24.826;2022-08-30T08:21:46;18.20;99.90
58309;DHT22;44117;57.142;24.826;2022-08-30T08:24:26;18.30;99.90
58309;DHT22;44117;57.142;24.826;2022-08-30T08:26:55;18.30;99.90
58309;DHT22;44117;57.142;24.826;2022-08-30T08:29:23;18.30;99.90
58309;DHT22;44117;57.142;24.826;2022-08-30T08:31:53;18.40;99.90
58309;DHT22;44117;57.142;24.826;2022-08-30T08:34:23;18.40;99.90
58309;DHT22;44117;57.142;24.826;2022-08-30T08:36:51;18.40;99.90
58309;DHT22;44117;57.142;24.826;2022-08-30T08:39:20;18.50;99.90
58309;DHT22;44117;57.142;24.826;2022-08-30T08:44:59;18.30;99.90
58309;DHT22;44117;57.142;24.826;2022-08-30T08:47:57;18.30;99.90
58309;DHT22;44117;57.142;24.826;2022-08-30T08:50:30;18.30;99.90
58309;DHT22;44117;57.142;24.826;2022-08-30T08:53:11;18.40;99.90
58309;DHT22;44117;57.142;24.826;2022-08-30T08:56:15;18.30;99.90
58309;DHT22;44117;57.142;24.826;2022-08-30T08:58:49;18.30;99.90
58309;DHT22;44117;57.142;24.826;2022-08-30T09:01:20;18.50;99.90
58309;DHT22;44117;57.142;24.826;2022-08-30T09:03:48;18.40;99.90
58309;DHT22;44117;57.142;24.826;2022-08-30T09:08:51;18.60;99.90
58309;DHT22;44117;57.142;24.826;2022-08-30T09:11:25;18.70;99.90
58309;DHT22;44117;57.142;24.826;2022-08-30T09:13:53;18.80;99.90
58309;DHT22;44117;57.142;24.826;2022-08-30T09:19:39;18.80;99.90
58309;DHT22;44117;57.142;24.826;2022-08-30T09:22:20;18.80;99.90
58309;DHT22;44117;57.142;24.826;2022-08-30T09:24:54;18.60;99.90
58309;DHT22;44117;57.142;24.826;2022-08-30T09:27:30;18.60;99.90
58309;DHT22;44117;57.142;24.826;2022-08-30T09:30:21;18.60;99.90
58309;DHT22;44117;57.142;24.826;2022-08-30T09:32:53;18.40;99.90
58309;DHT22;44117;57.142;24.826;2022-08-30T09:35:37;18.40;99.90
58309;DHT22;44117;57.142;24.826;2022-08-30T09:38:09;18.40;99.90
58309;DHT22;44117;57.142;24.826;2022-08-30T09:40:54;18.30;99.90
58309;DHT22;44117;57.142;24.826;2022-08-30T09:43:33;18.30;99.90
58309;DHT22;44117;57.142;24.826;2022-08-30T09:48:38;18.80;99.90
58309;DHT22;44117;57.142;24.826;2022-08-30T09:54:08;18.90;99.90
58309;DHT22;44117;57.142;24.826;2022-08-30T09:57:15;18.70;99.90
58309;DHT22;44117;57.142;24.826;2022-08-30T10:00:04;18.20;99.90
58309;DHT22;44117;57.142;24.826;2022-08-30T10:02:58;17.80;99.90
58309;DHT22;44117;57.142;24.826;2022-08-30T10:06:08;17.80;99.90
58309;DHT22;44117;57.142;24.826;2022-08-30T10:08:49;17.70;99.90
58309;DHT22;44117;57.142;24.826;2022-08-30T10:14:11;17.70;99.90
58309;DHT22;44117;57.142;24.826;2022-08-30T10:28:38;17.60;99.90
58309;DHT22;44117;57.142;24.826;2022-08-30T10:31:15;17.50;99.90
58309;DHT22;44117;57.142;24.826;2022-08-30T10:33:47;17.50;99.90
58309;DHT22;44117;57.142;24.826;2022-08-30T10:36:23;17.40;99.90
58309;DHT22;44117;57.142;24.826;2022-08-30T10:38:53;17.40;99.90
58309;DHT22;44117;57.142;24.826;2022-08-30T10:41:27;17.20;99.90
58309;DHT22;44117;57.142;24.826;2022-08-30T10:49:34;17.10;99.90
58309;DHT22;44117;57.142;24.826;2022-08-30T10:57:35;17.10;99.90
58309;DHT22;44117;57.142;24.826;2022-08-30T11:00:12;17.00;99.90
58309;DHT22;44117;57.142;24.826;2022-08-30T11:10:40;16.80;99.90
58309;DHT22;44117;57.142;24.826;2022-08-30T11:13:24;16.90;99.90
58309;DHT22;44117;57.142;24.826;2022-08-30T11:15:57;16.80;99.90
58309;DHT22;44117;57.142;24.826;2022-08-30T11:18:30;16.80;99.90
58309;DHT22;44117;57.142;24.826;2022-08-30T11:37:34;16.70;99.90
58309;DHT22;44117;57.142;24.826;2022-08-30T11:42:50;16.80;99.90
58309;DHT22;44117;57.142;24.826;2022-08-30T11:50:53;16.70;99.90
58309;DHT22;44117;57.142;24.826;2022-08-30T11:53:50;16.70;99.90
58309;DHT22;44117;57.142;24.826;2022-08-30T11:59:29;16.80;99.90
58309;DHT22;44117;57.142;24.826;2022-08-30T12:01:59;16.80;99.90
58309;DHT22;44117;57.142;24.826;2022-08-30T12:04:41;17.00;99.90
58309;DHT22;44117;57.142;24.826;2022-08-30T12:07:10;16.80;99.90
58309;DHT22;44117;57.142;24.826;2022-08-30T12:12:46;16.90;99.90
58309;DHT22;44117;57.142;24.826;2022-08-30T12:15:50;17.00;99.90
58309;DHT22;44117;57.142;24.826;2022-08-30T12:18:23;17.20;99.90
58309;DHT22;44117;57.142;24.826;2022-08-30T12:21:21;17.10;99.90
58309;DHT22;44117;57.142;24.826;2022-08-30T12:29:11;17.20;99.90
58309;DHT22;44117;57.142;24.826;2022-08-30T12:34:14;17.20;99.90
58309;DHT22;44117;57.142;24.826;2022-08-30T12:37:01;17.20;99.90
58309;DHT22;44117;57.142;24.826;2022-08-30T12:39:33;17.30;99.90
58309;DHT22;44117;57.142;24.826;2022-08-30T12:42:21;17.40;99.90
58309;DHT22;44117;57.142;24.826;2022-08-30T12:44:55;17.40;99.90
58309;DHT22;44117;57.142;24.826;2022-08-30T12:50:06;17.20;99.90
58309;DHT22;44117;57.142;24.826;2022-08-30T12:52:40;17.10;99.90
58309;DHT22;44117;57.142;24.826;2022-08-30T12:55:19;16.90;99.90
58309;DHT22;44117;57.142;24.826;2022-08-30T12:57:58;16.90;99.90
58309;DHT22;44117;57.142;24.826;2022-08-30T13:00:37;16.70;99.90
58309;DHT22;44117;57.142;24.826;2022-08-30T13:05:56;16.60;99.90
58309;DHT22;44117;57.142;24.826;2022-08-30T13:11:11;16.60;99.90
58309;DHT22;44117;57.142;24.826;2022-08-30T13:14:30;16.40;99.90
58309;DHT22;44117;57.142;24.826;2022-08-30T13:22:39;16.40;99.90
58309;DHT22;44117;57.142;24.826;2022-08-30T13:25:09;16.30;99.90
58309;DHT22;44117;57.142;24.826;2022-08-30T13:27:38;16.30;99.90
58309;DHT22;44117;57.142;24.826;2022-08-30T13:30:11;16.30;99.90
58309;DHT22;44117;57.142;24.826;2022-08-30T13:32:41;16.20;99.90
58309;DHT22;44117;57.142;24.826;2022-08-30T13:35:10;16.20;99.90
58309;DHT22;44117;57.142;24.826;2022-08-30T13:37:39;16.20;99.90
58309;DHT22;44117;57.142;24.826;2022-08-30T13:40:18;16.20;99.90
58309;DHT22;44117;57.142;24.826;2022-08-30T13:42:46;16.20;99.90
58309;DHT22;44117;57.142;24.826;2022-08-30T13:45:17;16.10;99.90
58309;DHT22;44117;57.142;24.826;2022-08-30T13:48:05;16.10;99.90
58309;DHT22;44117;57.142;24.826;2022-08-30T13:50:33;16.20;99.90
58309;DHT22;44117;57.142;24.826;2022-08-30T13:53:00;16.10;99.90
58309;DHT22;44117;57.142;24.826;2022-08-30T13:55:28;16.10;99.90
58309;DHT22;44117;57.142;24.826;2022-08-30T13:57:55;16.20;99.90
58309;DHT22;44117;57.142;24.826;2022-08-30T14:00:24;16.30;99.90
58309;DHT22;44117;57.142;24.826;2022-08-30T14:02:54;16.30;99.90
58309;DHT22;44117;57.142;24.826;2022-08-30T14:05:33;16.20;99.90
58309;DHT22;44117;57.142;24.826;2022-08-30T14:08:24;16.20;99.90
58309;DHT22;44117;57.142;24.826;2022-08-30T14:11:13;16.30;99.90
58309;DHT22;44117;57.142;24.826;2022-08-30T14:13:45;16.30;99.90
58309;DHT22;44117;57.142;24.826;2022-08-30T14:16:34;16.30;99.90
58309;DHT22;44117;57.142;24.826;2022-08-30T14:19:03;16.40;99.90
58309;DHT22;44117;57.142;24.826;2022-08-30T14:21:33;16.60;99.90
58309;DHT22;44117;57.142;24.826;2022-08-30T14:24:01;16.80;99.90
58309;DHT22;44117;57.142;24.826;2022-08-30T14:26:37;16.80;99.90
58309;DHT22;44117;57.142;24.826;2022-08-30T14:29:08;16.80;99.90
58309;DHT22;44117;57.142;24.826;2022-08-30T14:31:37;17.00;99.90
58309;DHT22;44117;57.142;24.826;2022-08-30T14:34:07;17.10;99.90
58309;DHT22;44117;57.142;24.826;2022-08-30T14:36:38;16.90;99.90
58309;DHT22;44117;57.142;24.826;2022-08-30T14:39:09;16.70;99.90
58309;DHT22;44117;57.142;24.826;2022-08-30T14:41:42;16.50;99.90
58309;DHT22;44117;57.142;24.826;2022-08-30T14:44:13;16.50;99.90
58309;DHT22;44117;57.142;24.826;2022-08-30T14:46:42;16.30;99.90
58309;DHT22;44117;57.142;24.826;2022-08-30T14:49:10;16.30;99.90
58309;DHT22;44117;57.142;24.826;2022-08-30T14:51:39;16.30;99.90
58309;DHT22;44117;57.142;24.826;2022-08-30T14:54:08;16.10;99.90
58309;DHT22;44117;57.142;24.826;2022-08-30T14:56:36;16.10;99.90
58309;DHT22;44117;57.142;24.826;2022-08-30T14:59:04;16.00;99.90
58309;DHT22;44117;57.142;24.826;2022-08-30T15:01:35;16.10;99.90
58309;DHT22;44117;57.142;24.826;2022-08-30T15:04:04;16.00;99.90
58309;DHT22;44117;57.142;24.826;2022-08-30T15:06:34;16.00;99.90
58309;DHT22;44117;57.142;24.826;2022-08-30T15:09:04;16.00;99.90
58309;DHT22;44117;57.142;24.826;2022-08-30T15:11:32;15.90;99.90
58309;DHT22;44117;57.142;24.826;2022-08-30T15:14:00;15.90;99.90
58309;DHT22;44117;57.142;24.826;2022-08-30T15:16:31;16.00;99.90
58309;DHT22;44117;57.142;24.826;2022-08-30T15:19:00;16.00;99.90
58309;DHT22;44117;57.142;24.826;2022-08-30T15:21:30;16.00;99.90
58309;DHT22;44117;57.142;24.826;2022-08-30T15:23:58;16.00;99.90
58309;DHT22;44117;57.142;24.826;2022-08-30T15:26:26;15.90;99.90
58309;DHT22;44117;57.142;24.826;2022-08-30T15:28:54;15.90;99.90
58309;DHT22;44117;57.142;24.826;2022-08-30T15:31:26;16.00;99.90
58309;DHT22;44117;57.142;24.826;2022-08-30T15:33:58;15.90;99.90
58309;DHT22;44117;57.142;24.826;2022-08-30T15:36:27;15.90;99.90
58309;DHT22;44117;57.142;24.826;2022-08-30T15:38:55;15.90;99.90
58309;DHT22;44117;57.142;24.826;2022-08-30T15:41:25;15.80;99.90
58309;DHT22;44117;57.142;24.826;2022-08-30T15:43:56;15.80;99.90
58309;DHT22;44117;57.142;24.826;2022-08-30T15:46:36;15.80;99.90
58309;DHT22;44117;57.142;24.826;2022-08-30T15:49:05;15.70;99.90
58309;DHT22;44117;57.142;24.826;2022-08-30T15:51:34;15.70;99.90
58309;DHT22;44117;57.142;24.826;2022-08-30T15:54:09;15.70;99.90
58309;DHT22;44117;57.142;24.826;2022-08-30T15:56:38;15.60;99.90
58309;DHT22;44117;57.142;24.826;2022-08-30T15:59:08;15.60;99.90
58309;DHT22;44117;57.142;24.826;2022-08-30T16:01:36;15.60;99.90
58309;DHT22;44117;57.142;24.826;2022-08-30T16:04:03;15.50;99.90
58309;DHT22;44117;57.142;24.826;2022-08-30T16:06:33;15.50;99.90
58309;DHT22;44117;57.142;24.826;2022-08-30T16:09:06;15.50;99.90
58309;DHT22;44117;57.142;24.826;2022-08-30T16:11:35;15.50;99.90
58309;DHT22;44117;57.142;24.826;2022-08-30T16:14:04;15.40;99.90
58309;DHT22;44117;57.142;24.826;2022-08-30T16:16:32;15.40;99.90
58309;DHT22;44117;57.142;24.826;2022-08-30T16:19:00;15.30;99.90
58309;DHT22;44117;57.142;24.826;2022-08-30T16:21:30;15.30;99.90
58309;DHT22;44117;57.142;24.826;2022-08-30T16:24:00;15.20;99.90
58309;DHT22;44117;57.142;24.826;2022-08-30T16:26:30;15.20;99.90
58309;DHT22;44117;57.142;24.826;2022-08-30T16:28:58;15.20;99.90
58309;DHT22;44117;57.142;24.826;2022-08-30T16:31:27;15.10;99.90
58309;DHT22;44117;57.142;24.826;2022-08-30T16:33:56;15.10;99.90
58309;DHT22;44117;57.142;24.826;2022-08-30T16:36:30;15.00;99.90
58309;DHT22;44117;57.142;24.826;2022-08-30T16:38:58;15.00;99.90
58309;DHT22;44117;57.142;24.826;2022-08-30T16:41:26;14.90;99.90
58309;DHT22;44117;57.142;24.826;2022-08-30T16:43:54;14.90;99.90
58309;DHT22;44117;57.142;24.826;2022-08-30T16:46:24;14.90;99.90
58309;DHT22;44117;57.142;24.826;2022-08-30T16:48:55;14.90;99.90
58309;DHT22;44117;57.142;24.826;2022-08-30T16:51:26;14.90;99.90
58309;DHT22;44117;57.142;24.826;2022-08-30T16:53:55;14.80;99.90
58309;DHT22;44117;57.142;24.826;2022-08-30T16:56:24;14.80;99.90
58309;DHT22;44117;57.142;24.826;2022-08-30T16:58:53;14.80;99.90
58309;DHT22;44117;57.142;24.826;2022-08-30T17:01:29;14.70;99.90
58309;DHT22;44117;57.142;24.826;2022-08-30T17:03:57;14.70;99.90
58309;DHT22;44117;57.142;24.826;2022-08-30T17:06:25;14.60;99.90
58309;DHT22;44117;57.142;24.826;2022-08-30T17:08:53;14.70;99.90
58309;DHT22;44117;57.142;24.826;2022-08-30T17:11:22;14.70;99.90
58309;DHT22;44117;57.142;24.826;2022-08-30T17:13:50;14.70;99.90
58309;DHT22;44117;57.142;24.826;2022-08-30T17:16:19;14.60;99.90
58309;DHT22;44117;57.142;24.826;2022-08-30T17:19:07;14.60;99.90
58309;DHT22;44117;57.142;24.826;2022-08-30T17:21:35;14.60;99.90